sensor_id;sensor_type;location;lat;lon;timestamp;temperature;humidity
11505;DHT22;5809;53.262;10.408;2023-04-08T00:01:46;5.80;99.90
11505;DHT22;5809;53.262;10.408;2023-04-08T00:06:40;5.80;99.90
11505;DHT22;5809;53.262;10.408;2023-04-08T00:11:36;5.90;99.90
11505;DHT22;5809;53.262;10.408;2023-04-08T00:23:53;6.00;99.90
11505;DHT22;5809;53.262;10.408;2023-04-08T00:28:48;5.80;99.90
11505;DHT22;5809;53.262;10.408;2023-04-08T00:31:15;5.80;99.90
11505;DHT22;5809;53.262;10.408;2023-04-08T00:38:37;5.80;99.90
11505;DHT22;5809;53.262;10.408;2023-04-08T00:43:31;5.80;99.90
11505;DHT22;5809;53.262;10.408;2023-04-08T00:45:59;5.80;99.90
11505;DHT22;5809;53.262;10.408;2023-04-08T00:50:54;5.90;99.90
11505;DHT22;5809;53.262;10.408;2023-04-08T00:53:21;5.90;99.90
11505;DHT22;5809;53.262;10.408;2023-04-08T00:55:48;5.90;99.90
11505;DHT22;5809;53.262;10.408;2023-04-08T00:58:16;6.00;99.90
11505;DHT22;5809;53.262;10.408;2023-04-08T01:00:49;6.00;99.90
11505;DHT22;5809;53.262;10.408;2023-04-08T01:03:25;6.00;99.90
11505;DHT22;5809;53.262;10.408;2023-04-08T01:05:58;6.00;99.90
11505;DHT22;5809;53.262;10.408;2023-04-08T01:08:26;6.00;99.90
11505;DHT22;5809;53.262;10.408;2023-04-08T01:10:58;5.90;99.90
11505;DHT22;5809;53.262;10.408;2023-04-08T01:13:30;5.90;99.90
11505;DHT22;5809;53.262;10.408;2023-04-08T01:18:28;5.90;99.90
11505;DHT22;5809;53.262;10.408;2023-04-08T01:20:57;5.80;99.90
11505;DHT22;5809;53.262;10.408;2023-04-08T01:23:32;5.80;99.90
11505;DHT22;5809;53.262;10.408;2023-04-08T01:26:04;5.80;99.90
11505;DHT22;5809;53.262;10.408;2023-04-08T01:28:32;5.80;99.90
11505;DHT22;5809;53.262;10.408;2023-04-08T01:31:05;5.70;99.90
11505;DHT22;5809;53.262;10.408;2023-04-08T01:33:33;5.70;99.90
11505;DHT22;5809;53.262;10.408;2023-04-08T01:38:29;5.70;99.90
11505;DHT22;5809;53.262;10.408;2023-04-08T01:40:57;5.80;99.90
11505;DHT22;5809;53.262;10.408;2023-04-08T01:43:26;5.80;99.90
11505;DHT22;5809;53.262;10.408;2023-04-08T01:45:55;5.80;99.90
11505;DHT22;5809;53.262;10.408;2023-04-08T01:48:23;5.70;99.90
11505;DHT22;5809;53.262;10.408;2023-04-08T01:50:51;5.80;99.90
11505;DHT22;5809;53.262;10.408;2023-04-08T01:58:19;5.80;99.90
11505;DHT22;5809;53.262;10.408;2023-04-08T02:00:47;5.70;99.90
11505;DHT22;5809;53.262;10.408;2023-04-08T02:03:17;5.70;99.90
11505;DHT22;5809;53.262;10.408;2023-04-08T02:10:47;5.80;99.90
11505;DHT22;5809;53.262;10.408;2023-04-08T02:13:14;5.80;99.90
11505;DHT22;5809;53.262;10.408;2023-04-08T02:15:45;5.80;99.90
11505;DHT22;5809;53.262;10.408;2023-04-08T02:18:16;5.80;99.90
11505;DHT22;5809;53.262;10.408;2023-04-08T02:20:55;5.80;99.90
11505;DHT22;5809;53.262;10.408;2023-04-08T02:23:24;5.80;99.90
11505;DHT22;5809;53.262;10.408;2023-04-08T02:25:55;5.80;99.90
11505;DHT22;5809;53.262;10.408;2023-04-08T02:28:22;5.90;99.90
11505;DHT22;5809;53.262;10.408;2023-04-08T02:30:52;5.80;99.90
11505;DHT22;5809;53.262;10.408;2023-04-08T02:33:22;5.90;99.90
11505;DHT22;5809;53.262;10.408;2023-04-08T02:35:50;5.90;99.90
11505;DHT22;5809;53.262;10.408;2023-04-08T02:38:19;5.80;99.90
11505;DHT22;5809;53.262;10.408;2023-04-08T02:40:48;5.90;99.90
11505;DHT22;5809;53.262;10.408;2023-04-08T02:43:16;5.90;99.90
11505;DHT22;5809;53.262;10.408;2023-04-08T02:45:43;5.90;99.90
11505;DHT22;5809;53.262;10.408;2023-04-08T02:48:10;5.90;99.90
11505;DHT22;5809;53.262;10.408;2023-04-08T02:50:38;5.90;99.90
11505;DHT22;5809;53.262;10.408;2023-04-08T02:55:32;5.90;99.90
11505;DHT22;5809;53.262;10.408;2023-04-08T03:00:27;5.90;99.90
11505;DHT22;5809;53.262;10.408;2023-04-08T03:02:59;5.90;99.90
11505;DHT22;5809;53.262;10.408;2023-04-08T03:05:26;5.90;99.90
11505;DHT22;5809;53.262;10.408;2023-04-08T03:07:55;5.80;99.90
11505;DHT22;5809;53.262;10.408;2023-04-08T03:10:21;5.80;99.90
11505;DHT22;5809;53.262;10.408;2023-04-08T03:12:48;5.90;99.90
11505;DHT22;5809;53.262;10.408;2023-04-08T03:15:15;5.90;99.90
11505;DHT22;5809;53.262;10.408;2023-04-08T03:20:10;5.90;99.90
11505;DHT22;5809;53.262;10.408;2023-04-08T03:22:37;6.00;99.90
11505;DHT22;5809;53.262;10.408;2023-04-08T03:25:06;6.00;99.90
11505;DHT22;5809;53.262;10.408;2023-04-08T03:27:33;6.00;99.90
11505;DHT22;5809;53.262;10.408;2023-04-08T03:30:00;5.90;99.90
11505;DHT22;5809;53.262;10.408;2023-04-08T03:42:17;5.90;99.90
11505;DHT22;5809;53.262;10.408;2023-04-08T03:44:44;5.90;99.90
11505;DHT22;5809;53.262;10.408;2023-04-08T03:49:38;5.90;99.90
11505;DHT22;5809;53.262;10.408;2023-04-08T03:54:32;5.80;99.90
11505;DHT22;5809;53.262;10.408;2023-04-08T03:59:28;5.80;99.90
11505;DHT22;5809;53.262;10.408;2023-04-08T04:01:55;5.80;99.90
11505;DHT22;5809;53.262;10.408;2023-04-08T04:06:49;5.90;99.90
11505;DHT22;5809;53.262;10.408;2023-04-08T04:11:43;5.80;99.90
11505;DHT22;5809;53.262;10.408;2023-04-08T04:16:38;5.80;99.90
11505;DHT22;5809;53.262;10.408;2023-04-08T04:19:05;5.80;99.90
11505;DHT22;5809;53.262;10.408;2023-04-08T04:21:32;5.80;99.90
11505;DHT22;5809;53.262;10.408;2023-04-08T04:23:59;5.80;99.90
11505;DHT22;5809;53.262;10.408;2023-04-08T04:26:26;5.80;99.90
11505;DHT22;5809;53.262;10.408;2023-04-08T04:31:21;5.80;99.90
11505;DHT22;5809;53.262;10.408;2023-04-08T04:33:54;5.80;99.90
11505;DHT22;5809;53.262;10.408;2023-04-08T04:36:21;5.80;99.90
11505;DHT22;5809;53.262;10.408;2023-04-08T04:38:48;5.80;99.90
11505;DHT22;5809;53.262;10.408;2023-04-08T04:41:15;5.80;99.90
11505;DHT22;5809;53.262;10.408;2023-04-08T04:46:10;5.80;99.90
11505;DHT22;5809;53.262;10.408;2023-04-08T04:48:37;5.80;99.90
11505;DHT22;5809;53.262;10.408;2023-04-08T04:51:05;5.80;99.90
11505;DHT22;5809;53.262;10.408;2023-04-08T04:53:32;5.70;99.90
11505;DHT22;5809;53.262;10.408;2023-04-08T04:55:59;5.70;99.90
11505;DHT22;5809;53.262;10.408;2023-04-08T04:58:26;5.60;99.90
11505;DHT22;5809;53.262;10.408;2023-04-08T05:00:53;5.60;99.90
11505;DHT22;5809;53.262;10.408;2023-04-08T05:03:21;5.60;99.90
11505;DHT22;5809;53.262;10.408;2023-04-08T05:05:50;5.60;99.90
11505;DHT22;5809;53.262;10.408;2023-04-08T05:08:19;4.50;99.90
11505;DHT22;5809;53.262;10.408;2023-04-08T05:10:46;5.60;99.90
11505;DHT22;5809;53.262;10.408;2023-04-08T05:13:14;5.60;99.90
11505;DHT22;5809;53.262;10.408;2023-04-08T05:18:10;5.60;99.90
11505;DHT22;5809;53.262;10.408;2023-04-08T05:20:37;5.60;99.90
11505;DHT22;5809;53.262;10.408;2023-04-08T05:25:33;5.60;99.90
11505;DHT22;5809;53.262;10.408;2023-04-08T05:28:00;5.60;99.90
11505;DHT22;5809;53.262;10.408;2023-04-08T05:30:27;5.60;99.90
11505;DHT22;5809;53.262;10.408;2023-04-08T05:37:48;5.60;99.90
11505;DHT22;5809;53.262;10.408;2023-04-08T05:42:44;5.60;99.90
11505;DHT22;5809;53.262;10.408;2023-04-08T05:45:11;5.60;99.90
11505;DHT22;5809;53.262;10.408;2023-04-08T05:47:38;5.60;99.90
11505;DHT22;5809;53.262;10.408;2023-04-08T05:50:06;5.70;99.90
11505;DHT22;5809;53.262;10.408;2023-04-08T05:52:33;5.60;99.90
11505;DHT22;5809;53.262;10.408;2023-04-08T05:54:59;5.60;99.90
11505;DHT22;5809;53.262;10.408;2023-04-08T05:59:55;5.70;99.90
11505;DHT22;5809;53.262;10.408;2023-04-08T06:02:22;5.70;99.90
11505;DHT22;5809;53.262;10.408;2023-04-08T06:12:10;5.60;99.90
11505;DHT22;5809;53.262;10.408;2023-04-08T06:17:06;5.60;99.90
11505;DHT22;5809;53.262;10.408;2023-04-08T06:19:33;5.70;99.90
11505;DHT22;5809;53.262;10.408;2023-04-08T06:22:00;5.60;99.90
11505;DHT22;5809;53.262;10.408;2023-04-08T06:26:55;5.70;99.90
11505;DHT22;5809;53.262;10.408;2023-04-08T06:29:22;5.70;99.90
11505;DHT22;5809;53.262;10.408;2023-04-08T06:34:18;5.80;99.90
11505;DHT22;5809;53.262;10.408;2023-04-08T06:39:12;5.80;99.90
11505;DHT22;5809;53.262;10.408;2023-04-08T06:41:41;5.80;99.90
11505;DHT22;5809;53.262;10.408;2023-04-08T06:44:08;5.90;99.90
11505;DHT22;5809;53.262;10.408;2023-04-08T06:46:35;5.90;99.90
11505;DHT22;5809;53.262;10.408;2023-04-08T06:49:02;6.00;99.90
11505;DHT22;5809;53.262;10.408;2023-04-08T06:51:32;6.00;99.90
11505;DHT22;5809;53.262;10.408;2023-04-08T06:54:00;6.00;99.90
11505;DHT22;5809;53.262;10.408;2023-04-08T06:56:26;6.00;99.90
11505;DHT22;5809;53.262;10.408;2023-04-08T06:58:53;5.90;99.90
11505;DHT22;5809;53.262;10.408;2023-04-08T07:06:15;5.70;99.90
11505;DHT22;5809;53.262;10.408;2023-04-08T07:08:43;5.70;99.90
11505;DHT22;5809;53.262;10.408;2023-04-08T07:11:10;5.70;99.90
11505;DHT22;5809;53.262;10.408;2023-04-08T07:13:37;5.80;99.90
11505;DHT22;5809;53.262;10.408;2023-04-08T07:16:05;5.80;99.90
11505;DHT22;5809;53.262;10.408;2023-04-08T07:18:32;6.00;99.90
11505;DHT22;5809;53.262;10.408;2023-04-08T07:23:26;5.90;99.90
11505;DHT22;5809;53.262;10.408;2023-04-08T07:25:54;5.90;99.90
11505;DHT22;5809;53.262;10.408;2023-04-08T07:28:21;5.90;99.90
11505;DHT22;5809;53.262;10.408;2023-04-08T07:30:48;5.90;99.90
11505;DHT22;5809;53.262;10.408;2023-04-08T07:35:42;6.00;99.90
11505;DHT22;5809;53.262;10.408;2023-04-08T07:40:38;6.00;99.90
11505;DHT22;5809;53.262;10.408;2023-04-08T07:43:06;6.10;99.90
11505;DHT22;5809;53.262;10.408;2023-04-08T07:48:00;6.30;99.90
11505;DHT22;5809;53.262;10.408;2023-04-08T07:52:54;6.40;99.90
11505;DHT22;5809;53.262;10.408;2023-04-08T07:57:48;6.50;99.90
11505;DHT22;5809;53.262;10.408;2023-04-08T08:00:17;6.50;99.90
11505;DHT22;5809;53.262;10.408;2023-04-08T08:05:13;6.60;99.90
11505;DHT22;5809;53.262;10.408;2023-04-08T08:10:08;6.60;99.90
11505;DHT22;5809;53.262;10.408;2023-04-08T08:12:35;6.60;99.90
11505;DHT22;5809;53.262;10.408;2023-04-08T08:22:25;6.50;99.90
11505;DHT22;5809;53.262;10.408;2023-04-08T08:24:55;6.60;99.90
11505;DHT22;5809;53.262;10.408;2023-04-08T08:27:22;6.60;99.90
11505;DHT22;5809;53.262;10.408;2023-04-08T08:29:49;6.60;99.90
11505;DHT22;5809;53.262;10.408;2023-04-08T08:34:45;6.50;99.90
11505;DHT22;5809;53.262;10.408;2023-04-08T08:37:12;6.50;99.90
11505;DHT22;5809;53.262;10.408;2023-04-08T08:42:06;6.30;99.90
11505;DHT22;5809;53.262;10.408;2023-04-08T08:44:33;6.40;99.90
11505;DHT22;5809;53.262;10.408;2023-04-08T08:47:00;6.40;99.90
11505;DHT22;5809;53.262;10.408;2023-04-08T08:51:56;6.40;99.90
11505;DHT22;5809;53.262;10.408;2023-04-08T08:59:18;6.50;99.90
11505;DHT22;5809;53.262;10.408;2023-04-08T09:04:14;6.60;99.90
11505;DHT22;5809;53.262;10.408;2023-04-08T09:06:41;6.60;99.90
11505;DHT22;5809;53.262;10.408;2023-04-08T09:09:10;6.50;99.90
11505;DHT22;5809;53.262;10.408;2023-04-08T09:11:37;6.60;99.90
11505;DHT22;5809;53.262;10.408;2023-04-08T09:14:05;6.70;99.90
11505;DHT22;5809;53.262;10.408;2023-04-08T09:19:10;6.70;99.90
11505;DHT22;5809;53.262;10.408;2023-04-08T09:21:38;6.50;99.90
11505;DHT22;5809;53.262;10.408;2023-04-08T09:26:35;6.30;99.90
11505;DHT22;5809;53.262;10.408;2023-04-08T09:29:04;6.40;99.90
11505;DHT22;5809;53.262;10.408;2023-04-08T09:31:32;6.50;99.90
11505;DHT22;5809;53.262;10.408;2023-04-08T09:34:09;6.70;99.90
11505;DHT22;5809;53.262;10.408;2023-04-08T09:39:04;6.80;99.90
11505;DHT22;5809;53.262;10.408;2023-04-08T09:41:34;6.70;99.90
11505;DHT22;5809;53.262;10.408;2023-04-08T09:44:03;6.80;99.90
11505;DHT22;5809;53.262;10.408;2023-04-08T09:46:32;6.90;99.90
11505;DHT22;5809;53.262;10.408;2023-04-08T09:49:05;6.90;99.90
11505;DHT22;5809;53.262;10.408;2023-04-08T09:51:35;6.90;99.90
11505;DHT22;5809;53.262;10.408;2023-04-08T09:54:09;6.90;99.90
11505;DHT22;5809;53.262;10.408;2023-04-08T09:56:42;6.90;99.90
11505;DHT22;5809;53.262;10.408;2023-04-08T09:59:13;6.90;99.90
11505;DHT22;5809;53.262;10.408;2023-04-08T10:01:45;7.00;99.90
11505;DHT22;5809;53.262;10.408;2023-04-08T10:04:14;7.20;99.90
11505;DHT22;5809;53.262;10.408;2023-04-08T10:06:43;5.10;99.90
11505;DHT22;5809;53.262;10.408;2023-04-08T10:09:11;7.30;99.90
11505;DHT22;5809;53.262;10.408;2023-04-08T10:11:39;7.40;99.90
11505;DHT22;5809;53.262;10.408;2023-04-08T10:14:08;7.40;99.90
11505;DHT22;5809;53.262;10.408;2023-04-08T10:22:46;7.30;99.90
11505;DHT22;5809;53.262;10.408;2023-04-08T10:25:28;7.40;99.90
11505;DHT22;5809;53.262;10.408;2023-04-08T10:27:57;7.50;99.90
11505;DHT22;5809;53.262;10.408;2023-04-08T10:30:41;6.90;99.90
11505;DHT22;5809;53.262;10.408;2023-04-08T10:33:12;7.00;99.90
11505;DHT22;5809;53.262;10.408;2023-04-08T10:35:42;6.80;99.90
11505;DHT22;5809;53.262;10.408;2023-04-08T10:38:11;6.90;99.90
11505;DHT22;5809;53.262;10.408;2023-04-08T10:40:39;7.10;99.90
11505;DHT22;5809;53.262;10.408;2023-04-08T10:43:09;7.20;99.90
11505;DHT22;5809;53.262;10.408;2023-04-08T10:45:37;7.10;99.90
11505;DHT22;5809;53.262;10.408;2023-04-08T10:48:14;7.10;99.90
11505;DHT22;5809;53.262;10.408;2023-04-08T10:50:42;6.90;99.90
11505;DHT22;5809;53.262;10.408;2023-04-08T10:53:09;6.90;99.90
11505;DHT22;5809;53.262;10.408;2023-04-08T10:58:09;6.80;99.90
11505;DHT22;5809;53.262;10.408;2023-04-08T11:00:38;6.80;99.90
11505;DHT22;5809;53.262;10.408;2023-04-08T11:03:07;7.00;99.90
11505;DHT22;5809;53.262;10.408;2023-04-08T11:05:34;7.00;99.90
11505;DHT22;5809;53.262;10.408;2023-04-08T11:08:03;7.10;99.90
11505;DHT22;5809;53.262;10.408;2023-04-08T11:10:30;7.20;99.90
11505;DHT22;5809;53.262;10.408;2023-04-08T11:15:30;7.30;99.90
11505;DHT22;5809;53.262;10.408;2023-04-08T11:17:58;7.40;99.90
11505;DHT22;5809;53.262;10.408;2023-04-08T11:20:25;7.50;99.90
11505;DHT22;5809;53.262;10.408;2023-04-08T11:22:52;7.60;99.90
11505;DHT22;5809;53.262;10.408;2023-04-08T11:25:19;7.60;99.90
11505;DHT22;5809;53.262;10.408;2023-04-08T11:27:46;7.70;99.90
11505;DHT22;5809;53.262;10.408;2023-04-08T11:30:14;7.70;99.90
11505;DHT22;5809;53.262;10.408;2023-04-08T11:32:43;7.80;99.90
11505;DHT22;5809;53.262;10.408;2023-04-08T11:35:10;7.90;99.90
11505;DHT22;5809;53.262;10.408;2023-04-08T11:37:38;7.90;99.90
11505;DHT22;5809;53.262;10.408;2023-04-08T11:40:09;7.90;99.90
11505;DHT22;5809;53.262;10.408;2023-04-08T11:42:37;8.00;99.90
11505;DHT22;5809;53.262;10.408;2023-04-08T11:45:10;8.10;99.90
11505;DHT22;5809;53.262;10.408;2023-04-08T11:47:37;8.10;99.90
11505;DHT22;5809;53.262;10.408;2023-04-08T11:50:07;8.10;99.90
11505;DHT22;5809;53.262;10.408;2023-04-08T11:52:42;8.10;99.90
11505;DHT22;5809;53.262;10.408;2023-04-08T11:55:09;8.10;99.90
11505;DHT22;5809;53.262;10.408;2023-04-08T11:57:36;8.10;99.90
11505;DHT22;5809;53.262;10.408;2023-04-08T12:00:06;8.20;99.90
11505;DHT22;5809;53.262;10.408;2023-04-08T12:02:34;8.10;99.90
11505;DHT22;5809;53.262;10.408;2023-04-08T12:05:01;8.10;99.90
11505;DHT22;5809;53.262;10.408;2023-04-08T12:07:29;8.20;99.90
11505;DHT22;5809;53.262;10.408;2023-04-08T12:12:24;8.30;99.90
11505;DHT22;5809;53.262;10.408;2023-04-08T12:17:18;8.10;99.90
11505;DHT22;5809;53.262;10.408;2023-04-08T12:19:45;8.00;99.90
11505;DHT22;5809;53.262;10.408;2023-04-08T12:22:11;8.00;99.90
11505;DHT22;5809;53.262;10.408;2023-04-08T12:24:40;7.90;99.90
11505;DHT22;5809;53.262;10.408;2023-04-08T12:27:07;7.90;99.90
11505;DHT22;5809;53.262;10.408;2023-04-08T12:29:34;8.00;99.90
11505;DHT22;5809;53.262;10.408;2023-04-08T12:34:28;8.10;99.90
11505;DHT22;5809;53.262;10.408;2023-04-08T12:39:23;8.20;99.90
11505;DHT22;5809;53.262;10.408;2023-04-08T12:41:51;8.20;99.90
11505;DHT22;5809;53.262;10.408;2023-04-08T12:44:18;8.20;99.90
11505;DHT22;5809;53.262;10.408;2023-04-08T12:46:45;8.10;99.90
11505;DHT22;5809;53.262;10.408;2023-04-08T12:49:12;8.10;99.90
11505;DHT22;5809;53.262;10.408;2023-04-08T12:51:39;8.10;99.90
11505;DHT22;5809;53.262;10.408;2023-04-08T12:54:06;8.20;99.90
11505;DHT22;5809;53.262;10.408;2023-04-08T12:56:33;8.10;99.90
11505;DHT22;5809;53.262;10.408;2023-04-08T12:59:01;8.10;99.90
11505;DHT22;5809;53.262;10.408;2023-04-08T13:01:28;8.20;99.90
11505;DHT22;5809;53.262;10.408;2023-04-08T13:03:55;8.20;99.90
11505;DHT22;5809;53.262;10.408;2023-04-08T13:06:22;8.10;99.90
11505;DHT22;5809;53.262;10.408;2023-04-08T13:08:49;8.10;99.90
11505;DHT22;5809;53.262;10.408;2023-04-08T13:13:43;8.10;99.90
11505;DHT22;5809;53.262;10.408;2023-04-08T13:16:12;8.10;99.90
11505;DHT22;5809;53.262;10.408;2023-04-08T13:18:39;8.20;99.90
11505;DHT22;5809;53.262;10.408;2023-04-08T13:21:07;8.30;99.90
11505;DHT22;5809;53.262;10.408;2023-04-08T13:23:34;8.50;99.90
11505;DHT22;5809;53.262;10.408;2023-04-08T13:26:01;8.50;99.90
11505;DHT22;5809;53.262;10.408;2023-04-08T13:28:28;8.40;99.90
11505;DHT22;5809;53.262;10.408;2023-04-08T13:30:55;8.30;99.90
11505;DHT22;5809;53.262;10.408;2023-04-08T13:33:23;8.40;99.90
11505;DHT22;5809;53.262;10.408;2023-04-08T13:35:50;8.30;99.90
11505;DHT22;5809;53.262;10.408;2023-04-08T13:38:17;8.30;99.90
11505;DHT22;5809;53.262;10.408;2023-04-08T13:40:44;8.40;99.90
11505;DHT22;5809;53.262;10.408;2023-04-08T13:43:10;8.50;99.90
11505;DHT22;5809;53.262;10.408;2023-04-08T13:45:37;8.60;99.90
11505;DHT22;5809;53.262;10.408;2023-04-08T13:48:05;8.70;99.90
11505;DHT22;5809;53.262;10.408;2023-04-08T13:50:33;8.70;99.90
11505;DHT22;5809;53.262;10.408;2023-04-08T13:53:00;8.70;99.90
11505;DHT22;5809;53.262;10.408;2023-04-08T13:55:27;8.60;99.90
11505;DHT22;5809;53.262;10.408;2023-04-08T13:57:54;8.60;99.90
11505;DHT22;5809;53.262;10.408;2023-04-08T14:00:21;8.70;99.90
11505;DHT22;5809;53.262;10.408;2023-04-08T14:02:50;8.70;99.90
11505;DHT22;5809;53.262;10.408;2023-04-08T14:05:17;8.70;99.90
11505;DHT22;5809;53.262;10.408;2023-04-08T14:07:45;8.60;99.90
11505;DHT22;5809;53.262;10.408;2023-04-08T14:10:12;8.60;99.90
11505;DHT22;5809;53.262;10.408;2023-04-08T14:12:40;8.60;99.90
11505;DHT22;5809;53.262;10.408;2023-04-08T14:15:08;8.60;99.90
11505;DHT22;5809;53.262;10.408;2023-04-08T14:17:35;8.60;99.90
11505;DHT22;5809;53.262;10.408;2023-04-08T14:20:03;8.60;99.90
11505;DHT22;5809;53.262;10.408;2023-04-08T14:22:31;8.70;99.90
11505;DHT22;5809;53.262;10.408;2023-04-08T14:24:59;8.80;99.90
11505;DHT22;5809;53.262;10.408;2023-04-08T14:27:26;8.90;99.90
11505;DHT22;5809;53.262;10.408;2023-04-08T14:29:53;8.90;99.90
11505;DHT22;5809;53.262;10.408;2023-04-08T14:34:47;8.80;99.90
11505;DHT22;5809;53.262;10.408;2023-04-08T14:37:14;8.90;99.90
11505;DHT22;5809;53.262;10.408;2023-04-08T14:39:42;8.90;99.90
11505;DHT22;5809;53.262;10.408;2023-04-08T14:42:10;9.00;99.90
11505;DHT22;5809;53.262;10.408;2023-04-08T14:44:37;9.00;99.90
11505;DHT22;5809;53.262;10.408;2023-04-08T14:47:04;8.90;99.90
11505;DHT22;5809;53.262;10.408;2023-04-08T14:49:31;8.90;99.90
11505;DHT22;5809;53.262;10.408;2023-04-08T14:51:58;8.90;99.90
11505;DHT22;5809;53.262;10.408;2023-04-08T14:54:26;8.90;99.90
11505;DHT22;5809;53.262;10.408;2023-04-08T14:56:52;8.90;99.90
11505;DHT22;5809;53.262;10.408;2023-04-08T14:59:21;8.90;99.90
11505;DHT22;5809;53.262;10.408;2023-04-08T15:01:48;8.90;99.90
11505;DHT22;5809;53.262;10.408;2023-04-08T15:04:15;8.90;99.90
11505;DHT22;5809;53.262;10.408;2023-04-08T15:06:42;8.90;99.90
11505;DHT22;5809;53.262;10.408;2023-04-08T15:09:09;8.90;99.90
11505;DHT22;5809;53.262;10.408;2023-04-08T15:11:36;8.90;99.90
11505;DHT22;5809;53.262;10.408;2023-04-08T15:14:03;8.80;99.90
11505;DHT22;5809;53.262;10.408;2023-04-08T15:16:31;8.70;99.90
11505;DHT22;5809;53.262;10.408;2023-04-08T15:18:58;8.70;99.90
11505;DHT22;5809;53.262;10.408;2023-04-08T15:21:25;8.70;99.90
11505;DHT22;5809;53.262;10.408;2023-04-08T15:23:52;8.60;99.90
11505;DHT22;5809;53.262;10.408;2023-04-08T15:26:19;8.60;99.90
11505;DHT22;5809;53.262;10.408;2023-04-08T15:28:47;8.50;99.90
11505;DHT22;5809;53.262;10.408;2023-04-08T15:31:14;8.50;99.90
11505;DHT22;5809;53.262;10.408;2023-04-08T15:33:42;8.40;99.90
11505;DHT22;5809;53.262;10.408;2023-04-08T15:36:10;8.40;99.90
11505;DHT22;5809;53.262;10.408;2023-04-08T15:41:05;8.40;99.90
11505;DHT22;5809;53.262;10.408;2023-04-08T15:43:32;8.30;99.90
11505;DHT22;5809;53.262;10.408;2023-04-08T15:45:59;8.30;99.90
11505;DHT22;5809;53.262;10.408;2023-04-08T15:48:26;8.30;99.90
11505;DHT22;5809;53.262;10.408;2023-04-08T15:50:54;8.10;99.90
11505;DHT22;5809;53.262;10.408;2023-04-08T15:53:21;8.20;99.90
11505;DHT22;5809;53.262;10.408;2023-04-08T15:55:48;8.20;99.90
11505;DHT22;5809;53.262;10.408;2023-04-08T15:58:15;8.20;99.90
11505;DHT22;5809;53.262;10.408;2023-04-08T16:00:42;8.10;99.90
11505;DHT22;5809;53.262;10.408;2023-04-08T16:03:09;8.10;99.90
11505;DHT22;5809;53.262;10.408;2023-04-08T16:08:07;8.10;99.90
11505;DHT22;5809;53.262;10.408;2023-04-08T16:10:34;8.00;99.90
11505;DHT22;5809;53.262;10.408;2023-04-08T16:13:01;8.00;99.90
11505;DHT22;5809;53.262;10.408;2023-04-08T16:15:28;7.90;99.90
11505;DHT22;5809;53.262;10.408;2023-04-08T16:17:55;7.90;99.90
11505;DHT22;5809;53.262;10.408;2023-04-08T16:20:22;7.90;99.90
11505;DHT22;5809;53.262;10.408;2023-04-08T16:22:49;7.90;99.90
11505;DHT22;5809;53.262;10.408;2023-04-08T16:25:17;7.90;99.90
11505;DHT22;5809;53.262;10.408;2023-04-08T16:30:12;7.90;99.90
11505;DHT22;5809;53.262;10.408;2023-04-08T16:32:39;7.90;99.90
11505;DHT22;5809;53.262;10.408;2023-04-08T16:35:07;7.80;99.90
11505;DHT22;5809;53.262;10.408;2023-04-08T16:37:34;7.70;99.90
11505;DHT22;5809;53.262;10.408;2023-04-08T16:42:30;7.70;99.90
11505;DHT22;5809;53.262;10.408;2023-04-08T16:44:57;7.60;99.90
11505;DHT22;5809;53.262;10.408;2023-04-08T16:54:46;7.60;99.90
11505;DHT22;5809;53.262;10.408;2023-04-08T16:57:13;7.60;99.90
11505;DHT22;5809;53.262;10.408;2023-04-08T16:59:42;7.60;99.90
11505;DHT22;5809;53.262;10.408;2023-04-08T17:04:36;7.60;99.90
11505;DHT22;5809;53.262;10.408;2023-04-08T17:07:03;7.50;99.90
11505;DHT22;5809;53.262;10.408;2023-04-08T17:09:30;7.50;99.90
11505;DHT22;5809;53.262;10.408;2023-04-08T17:14:24;7.50;99.90
11505;DHT22;5809;53.262;10.408;2023-04-08T17:16:53;7.50;99.90
11505;DHT22;5809;53.262;10.408;2023-04-08T17:19:20;7.50;99.90
11505;DHT22;5809;53.262;10.408;2023-04-08T17:24:14;7.50;99.90
11505;DHT22;5809;53.262;10.408;2023-04-08T17:26:41;7.50;99.90
11505;DHT22;5809;53.262;10.408;2023-04-08T17:29:08;7.50;99.90
11505;DHT22;5809;53.262;10.408;2023-04-08T17:31:35;7.50;99.90
11505;DHT22;5809;53.262;10.408;2023-04-08T17:34:05;7.40;99.90
11505;DHT22;5809;53.262;10.408;2023-04-08T17:36:32;7.40;99.90
11505;DHT22;5809;53.262;10.408;2023-04-08T17:41:26;7.30;99.90
11505;DHT22;5809;53.262;10.408;2023-04-08T17:48:49;7.30;99.90
11505;DHT22;5809;53.262;10.408;2023-04-08T17:51:17;7.30;99.90
11505;DHT22;5809;53.262;10.408;2023-04-08T17:58:38;7.20;99.90
11505;DHT22;5809;53.262;10.408;2023-04-08T18:01:05;7.20;99.90
11505;DHT22;5809;53.262;10.408;2023-04-08T18:03:33;7.20;99.90
11505;DHT22;5809;53.262;10.408;2023-04-08T18:06:00;7.20;99.90
11505;DHT22;5809;53.262;10.408;2023-04-08T18:08:28;7.20;99.90
11505;DHT22;5809;53.262;10.408;2023-04-08T18:10:55;7.20;99.90
11505;DHT22;5809;53.262;10.408;2023-04-08T18:15:49;7.10;99.90
11505;DHT22;5809;53.262;10.408;2023-04-08T18:23:11;7.00;99.90
11505;DHT22;5809;53.262;10.408;2023-04-08T18:25:40;7.00;99.90
11505;DHT22;5809;53.262;10.408;2023-04-08T18:28:09;7.00;99.90
11505;DHT22;5809;53.262;10.408;2023-04-08T18:30:36;7.00;99.90
11505;DHT22;5809;53.262;10.408;2023-04-08T18:37:58;7.10;99.90
11505;DHT22;5809;53.262;10.408;2023-04-08T18:42:53;7.00;99.90
11505;DHT22;5809;53.262;10.408;2023-04-08T18:47:48;7.10;99.90
11505;DHT22;5809;53.262;10.408;2023-04-08T18:52:42;7.00;99.90
11505;DHT22;5809;53.262;10.408;2023-04-08T18:57:36;7.10;99.90
11505;DHT22;5809;53.262;10.408;2023-04-08T19:00:06;7.10;99.90
11505;DHT22;5809;53.262;10.408;2023-04-08T19:02:33;7.10;99.90
11505;DHT22;5809;53.262;10.408;2023-04-08T19:05:00;7.10;99.90
11505;DHT22;5809;53.262;10.408;2023-04-08T19:07:27;7.10;99.90
11505;DHT22;5809;53.262;10.408;2023-04-08T19:09:55;7.10;99.90
11505;DHT22;5809;53.262;10.408;2023-04-08T19:12:22;7.10;99.90
11505;DHT22;5809;53.262;10.408;2023-04-08T19:14:49;7.20;99.90
11505;DHT22;5809;53.262;10.408;2023-04-08T19:17:17;7.10;99.90
11505;DHT22;5809;53.262;10.408;2023-04-08T19:22:11;7.10;99.90
11505;DHT22;5809;53.262;10.408;2023-04-08T19:27:05;7.10;99.90
11505;DHT22;5809;53.262;10.408;2023-04-08T19:29:32;7.10;99.90
11505;DHT22;5809;53.262;10.408;2023-04-08T19:31:59;7.10;99.90
11505;DHT22;5809;53.262;10.408;2023-04-08T19:34:29;7.10;99.90
11505;DHT22;5809;53.262;10.408;2023-04-08T19:36:55;7.10;99.90
11505;DHT22;5809;53.262;10.408;2023-04-08T19:41:49;7.10;99.90
11505;DHT22;5809;53.262;10.408;2023-04-08T19:44:16;7.10;99.90
11505;DHT22;5809;53.262;10.408;2023-04-08T19:49:10;7.10;99.90
11505;DHT22;5809;53.262;10.408;2023-04-08T19:51:39;7.10;99.90
11505;DHT22;5809;53.262;10.408;2023-04-08T19:56:33;7.10;99.90
11505;DHT22;5809;53.262;10.408;2023-04-08T19:59:00;7.00;99.90
11505;DHT22;5809;53.262;10.408;2023-04-08T20:01:27;7.10;99.90
11505;DHT22;5809;53.262;10.408;2023-04-08T20:03:54;7.00;99.90
11505;DHT22;5809;53.262;10.408;2023-04-08T20:08:50;7.10;99.90
11505;DHT22;5809;53.262;10.408;2023-04-08T20:18:41;7.10;99.90
11505;DHT22;5809;53.262;10.408;2023-04-08T20:23:38;7.10;99.90